JAF7TJ EBOS-LGRP
Flight info
| Callsign | JAF7TJ |
|---|---|
| Flight time | N/A |
| Altitude | 37000 |
| Route | FERDI UL607 MATUG DCT BOMBI DCT DETEV DCT DINKU DCT XERUM DCT BAVAX DCT RADIZ DCT EVAXI DCT NIPEL DCT DOL DCT GORPA DCT DEVUL DCT REMSO DCT MEDUX UM867 KOGAT DCT ERANA UL737 TSL UN130 MES UN139 LURUS UL995 CODIC |
| Aircraft | A320/M-SDE3FGHIRWY/LB1 |
Departure
| Time | 2026-05-08 09:13 |
|---|---|
| Airport | Ostend-Bruges International Airport (EBOS) |
Arrival
| Time | N/A |
|---|---|
| Airport | Rhodes International Airport "Diagoras" (LGRP) |
| Time | Latitude | Longitude | Altitude | Speed | Heading |
|---|---|---|---|---|---|
| 2026-05-08 08:50 | 51.20344 | 2.86983 | 26 ft | 0 kts | 345° |
| 2026-05-08 09:05 | 51.20341 | 2.86984 | 24 ft | 3 kts | 345° |
| 2026-05-08 09:05 | 51.20315 | 2.86995 | 24 ft | 4 kts | 347° |
| 2026-05-08 09:05 | 51.20289 | 2.87004 | 25 ft | 4 kts | 346° |
| 2026-05-08 09:05 | 51.20266 | 2.87014 | 25 ft | 4 kts | 328° |
| 2026-05-08 09:06 | 51.20255 | 2.87040 | 25 ft | 4 kts | 257° |
| 2026-05-08 09:06 | 51.20264 | 2.87080 | 24 ft | 4 kts | 251° |
| 2026-05-08 09:06 | 51.20266 | 2.87094 | 23 ft | 0 kts | 259° |
| 2026-05-08 09:08 | 51.20266 | 2.87089 | 23 ft | 2 kts | 259° |
| 2026-05-08 09:09 | 51.20259 | 2.87035 | 23 ft | 8 kts | 258° |
| 2026-05-08 09:09 | 51.20244 | 2.86922 | 23 ft | 13 kts | 257° |
| 2026-05-08 09:09 | 51.20220 | 2.86770 | 23 ft | 11 kts | 254° |
| 2026-05-08 09:09 | 51.20152 | 2.86700 | 25 ft | 14 kts | 187° |
| 2026-05-08 09:10 | 51.20046 | 2.86668 | 25 ft | 14 kts | 214° |
| 2026-05-08 09:10 | 51.20009 | 2.86507 | 25 ft | 18 kts | 256° |
| 2026-05-08 09:10 | 51.19978 | 2.86302 | 24 ft | 20 kts | 257° |
| 2026-05-08 09:10 | 51.19945 | 2.86077 | 23 ft | 22 kts | 256° |
| 2026-05-08 09:11 | 51.19907 | 2.85830 | 25 ft | 24 kts | 256° |
| 2026-05-08 09:11 | 51.19867 | 2.85564 | 23 ft | 26 kts | 256° |
| 2026-05-08 09:11 | 51.19840 | 2.85383 | 23 ft | 12 kts | 256° |
| 2026-05-08 09:11 | 51.19782 | 2.85280 | 23 ft | 9 kts | 213° |
| 2026-05-08 09:12 | 51.19721 | 2.85262 | 22 ft | 10 kts | 173° |
| 2026-05-08 09:12 | 51.19667 | 2.85301 | 22 ft | 6 kts | 123° |
| 2026-05-08 09:12 | 51.19673 | 2.85386 | 21 ft | 14 kts | 76° |
| 2026-05-08 09:12 | 51.19705 | 2.85604 | 22 ft | 53 kts | 77° |
| 2026-05-08 09:13 | 51.19841 | 2.86506 | 25 ft | 111 kts | 76° |
| 2026-05-08 09:13 | 51.20060 | 2.87947 | 22 ft | 155 kts | 76° |
| 2026-05-08 09:13 | 51.20315 | 2.89671 | 499 ft | 155 kts | 76° |
| 2026-05-08 09:13 | 51.20566 | 2.91366 | 1064 ft | 159 kts | 76° |
| 2026-05-08 09:14 | 51.20831 | 2.93136 | 1461 ft | 173 kts | 77° |
| 2026-05-08 09:14 | 51.21125 | 2.95120 | 1713 ft | 194 kts | 77° |
| 2026-05-08 09:14 | 51.21449 | 2.97303 | 2071 ft | 212 kts | 77° |
| 2026-05-08 09:14 | 51.21749 | 2.99721 | 2540 ft | 229 kts | 88° |
| 2026-05-08 09:15 | 51.21438 | 3.02235 | 3229 ft | 241 kts | 116° |
| 2026-05-08 09:15 | 51.20440 | 3.04501 | 3813 ft | 256 kts | 128° |
| 2026-05-08 09:15 | 51.19335 | 3.06744 | 4683 ft | 259 kts | 129° |
| 2026-05-08 09:15 | 51.18215 | 3.09016 | 5581 ft | 261 kts | 128° |
| 2026-05-08 09:16 | 51.17092 | 3.11298 | 6471 ft | 263 kts | 128° |
| 2026-05-08 09:16 | 51.15955 | 3.13611 | 7276 ft | 267 kts | 128° |
| 2026-05-08 09:16 | 51.14798 | 3.15965 | 8044 ft | 272 kts | 128° |
| 2026-05-08 09:16 | 51.13624 | 3.18361 | 8802 ft | 277 kts | 129° |
| 2026-05-08 09:17 | 51.12429 | 3.20805 | 9524 ft | 283 kts | 128° |
| 2026-05-08 09:17 | 51.11220 | 3.23283 | 10212 ft | 289 kts | 128° |
| 2026-05-08 09:17 | 51.09956 | 3.25869 | 10546 ft | 308 kts | 129° |
| 2026-05-08 09:17 | 51.08574 | 3.28684 | 10717 ft | 331 kts | 128° |
| 2026-05-08 09:18 | 51.07131 | 3.31623 | 10837 ft | 352 kts | 129° |
| 2026-05-08 09:18 | 51.05591 | 3.34757 | 11243 ft | 363 kts | 129° |
| 2026-05-08 09:18 | 51.04023 | 3.37942 | 11815 ft | 368 kts | 129° |
| 2026-05-08 09:18 | 51.02437 | 3.41161 | 12412 ft | 372 kts | 129° |
| 2026-05-08 09:19 | 51.00831 | 3.44421 | 13004 ft | 376 kts | 129° |
| 2026-05-08 09:19 | 50.99213 | 3.47700 | 13627 ft | 380 kts | 129° |
| 2026-05-08 09:19 | 50.98660 | 3.48817 | 13838 ft | 382 kts | 129° |
| 2026-05-08 09:20 | 50.93845 | 3.58498 | 15504 ft | 390 kts | 129° |
| 2026-05-08 09:20 | 50.92216 | 3.61937 | 16083 ft | 393 kts | 124° |
| 2026-05-08 09:20 | 50.90935 | 3.65770 | 16681 ft | 398 kts | 114° |
| 2026-05-08 09:20 | 50.90061 | 3.69913 | 17271 ft | 401 kts | 108° |
| 2026-05-08 09:21 | 50.89246 | 3.74216 | 17896 ft | 404 kts | 108° |
| 2026-05-08 09:21 | 50.88427 | 3.78488 | 18450 ft | 407 kts | 108° |
| 2026-05-08 09:22 | 50.83311 | 4.04714 | 21365 ft | 425 kts | 109° |
| 2026-05-08 09:23 | 50.82434 | 4.09188 | 21795 ft | 427 kts | 109° |
| 2026-05-08 09:23 | 50.81549 | 4.13687 | 22204 ft | 430 kts | 109° |
| 2026-05-08 09:23 | 50.80657 | 4.18207 | 22611 ft | 432 kts | 109° |
| 2026-05-08 09:23 | 50.79761 | 4.22759 | 23002 ft | 434 kts | 109° |
| 2026-05-08 09:24 | 50.78859 | 4.27338 | 23381 ft | 437 kts | 109° |
| 2026-05-08 09:24 | 50.77951 | 4.31924 | 23746 ft | 440 kts | 109° |
| 2026-05-08 09:24 | 50.77026 | 4.36558 | 24052 ft | 442 kts | 109° |
| 2026-05-08 09:24 | 50.76100 | 4.41196 | 24371 ft | 444 kts | 109° |
| 2026-05-08 09:25 | 50.75171 | 4.45860 | 24684 ft | 446 kts | 109° |
| 2026-05-08 09:25 | 50.74253 | 4.50447 | 24994 ft | 448 kts | 109° |
| 2026-05-08 09:25 | 50.73290 | 4.55226 | 25304 ft | 450 kts | 109° |
| 2026-05-08 09:25 | 50.72339 | 4.59940 | 25619 ft | 451 kts | 109° |
| 2026-05-08 09:26 | 50.71417 | 4.64555 | 25913 ft | 453 kts | 109° |
| 2026-05-08 09:26 | 50.70465 | 4.69439 | 26270 ft | 454 kts | 109° |
| 2026-05-08 09:26 | 50.69552 | 4.74204 | 26704 ft | 453 kts | 108° |
| 2026-05-08 09:26 | 50.68644 | 4.78954 | 27145 ft | 452 kts | 108° |
| 2026-05-08 09:27 | 50.67729 | 4.83701 | 27586 ft | 451 kts | 109° |
| 2026-05-08 09:27 | 50.66811 | 4.88426 | 28018 ft | 450 kts | 109° |
| 2026-05-08 09:27 | 50.66201 | 4.91544 | 28322 ft | 450 kts | 109° |
| 2026-05-08 09:27 | 50.65267 | 4.96239 | 28770 ft | 449 kts | 109° |
| 2026-05-08 09:28 | 50.64313 | 5.00918 | 29225 ft | 448 kts | 110° |
| 2026-05-08 09:28 | 50.63031 | 5.07087 | 29836 ft | 447 kts | 110° |
| 2026-05-08 09:28 | 50.62062 | 5.11729 | 30276 ft | 446 kts | 110° |
| 2026-05-08 09:28 | 50.61097 | 5.16366 | 30626 ft | 446 kts | 110° |
| 2026-05-08 09:29 | 50.60442 | 5.19512 | 30867 ft | 447 kts | 110° |
| 2026-05-08 09:29 | 50.59487 | 5.24101 | 31232 ft | 447 kts | 110° |
| 2026-05-08 09:29 | 50.58519 | 5.28751 | 31604 ft | 447 kts | 110° |
| 2026-05-08 09:29 | 50.57552 | 5.33398 | 31988 ft | 446 kts | 110° |
| 2026-05-08 09:30 | 50.56590 | 5.38038 | 32363 ft | 446 kts | 110° |
| 2026-05-08 09:30 | 50.55629 | 5.42675 | 32736 ft | 446 kts | 111° |
| 2026-05-08 09:30 | 50.54660 | 5.47312 | 33111 ft | 446 kts | 111° |
| 2026-05-08 09:30 | 50.53686 | 5.51935 | 33486 ft | 446 kts | 111° |
| 2026-05-08 09:31 | 50.52708 | 5.56558 | 33870 ft | 446 kts | 111° |
| 2026-05-08 09:31 | 50.51731 | 5.61191 | 34176 ft | 447 kts | 109° |
| 2026-05-08 09:31 | 50.51004 | 5.65955 | 34424 ft | 450 kts | 104° |
| 2026-05-08 09:31 | 50.50388 | 5.70765 | 34715 ft | 450 kts | 104° |
| 2026-05-08 09:32 | 50.49769 | 5.75584 | 34994 ft | 450 kts | 104° |
| 2026-05-08 09:32 | 50.49148 | 5.80402 | 35253 ft | 450 kts | 104° |
| 2026-05-08 09:32 | 50.48524 | 5.85228 | 35503 ft | 451 kts | 104° |
| 2026-05-08 09:32 | 50.47898 | 5.90045 | 35748 ft | 451 kts | 104° |
| 2026-05-08 09:33 | 50.47268 | 5.94866 | 35989 ft | 451 kts | 104° |
| 2026-05-08 09:33 | 50.46636 | 5.99694 | 36224 ft | 452 kts | 104° |
| 2026-05-08 09:33 | 50.46000 | 6.04529 | 36449 ft | 452 kts | 104° |
| 2026-05-08 09:33 | 50.45362 | 6.09367 | 36671 ft | 453 kts | 104° |
| 2026-05-08 09:34 | 50.44742 | 6.14040 | 36896 ft | 453 kts | 104° |
| 2026-05-08 09:34 | 50.44074 | 6.19054 | 37073 ft | 454 kts | 104° |
| 2026-05-08 09:34 | 50.43426 | 6.23922 | 37116 ft | 459 kts | 104° |
| 2026-05-08 09:35 | 50.42103 | 6.33757 | 37109 ft | 466 kts | 104° |
| 2026-05-08 09:35 | 50.40745 | 6.43758 | 37111 ft | 467 kts | 104° |
| 2026-05-08 09:36 | 50.39372 | 6.53722 | 37114 ft | 467 kts | 104° |
| 2026-05-08 09:36 | 50.38001 | 6.63605 | 37114 ft | 467 kts | 104° |
| 2026-05-08 09:37 | 50.36628 | 6.73411 | 37120 ft | 468 kts | 104° |
| 2026-05-08 09:37 | 50.35210 | 6.83506 | 37124 ft | 468 kts | 104° |
| 2026-05-08 09:38 | 50.33806 | 6.93456 | 37114 ft | 468 kts | 104° |
| 2026-05-08 09:38 | 50.32387 | 7.03416 | 37119 ft | 468 kts | 104° |
| 2026-05-08 09:39 | 50.30961 | 7.13362 | 37119 ft | 468 kts | 104° |
| 2026-05-08 09:39 | 50.29532 | 7.23255 | 37124 ft | 468 kts | 104° |
| 2026-05-08 09:40 | 50.28097 | 7.33148 | 37131 ft | 469 kts | 104° |
| 2026-05-08 09:40 | 50.26636 | 7.43176 | 37121 ft | 469 kts | 105° |
| 2026-05-08 09:41 | 50.25173 | 7.53097 | 37129 ft | 469 kts | 105° |
| 2026-05-08 09:41 | 50.23719 | 7.62921 | 37142 ft | 469 kts | 105° |
| 2026-05-08 09:42 | 50.22226 | 7.72949 | 37141 ft | 469 kts | 105° |
| 2026-05-08 09:42 | 50.20739 | 7.82857 | 37134 ft | 469 kts | 105° |
| 2026-05-08 09:43 | 50.19259 | 7.92645 | 37141 ft | 469 kts | 105° |
| 2026-05-08 09:43 | 50.17737 | 8.02685 | 37141 ft | 470 kts | 105° |
| 2026-05-08 09:44 | 50.16218 | 8.12602 | 37143 ft | 470 kts | 105° |
| 2026-05-08 09:44 | 50.14706 | 8.22445 | 37145 ft | 470 kts | 105° |
| 2026-05-08 09:45 | 50.13174 | 8.32358 | 37138 ft | 470 kts | 105° |
| 2026-05-08 09:45 | 50.11632 | 8.42259 | 37140 ft | 470 kts | 105° |
| 2026-05-08 09:46 | 50.10093 | 8.52042 | 37135 ft | 470 kts | 106° |
| 2026-05-08 09:46 | 50.08515 | 8.62072 | 37140 ft | 471 kts | 106° |
| 2026-05-08 09:47 | 50.06948 | 8.71965 | 37144 ft | 471 kts | 106° |
| 2026-05-08 09:47 | 50.05123 | 8.81726 | 37140 ft | 468 kts | 116° |
| 2026-05-08 09:48 | 50.02324 | 8.90832 | 37137 ft | 466 kts | 118° |
| 2026-05-08 09:48 | 49.99492 | 8.99901 | 37135 ft | 467 kts | 118° |
| 2026-05-08 09:49 | 49.96649 | 9.08982 | 37129 ft | 467 kts | 118° |
| 2026-05-08 09:49 | 49.93822 | 9.17991 | 37127 ft | 467 kts | 118° |
| 2026-05-08 09:50 | 49.90972 | 9.27052 | 37130 ft | 467 kts | 118° |
| 2026-05-08 09:50 | 49.88112 | 9.36108 | 37133 ft | 467 kts | 118° |
| 2026-05-08 09:51 | 49.85277 | 9.45030 | 37129 ft | 467 kts | 119° |
| 2026-05-08 09:51 | 49.82084 | 9.53881 | 37132 ft | 463 kts | 130° |
| 2026-05-08 09:52 | 49.77681 | 9.61030 | 37116 ft | 458 kts | 140° |
| 2026-05-08 09:52 | 49.73021 | 9.67758 | 37120 ft | 458 kts | 140° |
| 2026-05-08 09:53 | 49.68359 | 9.74492 | 37124 ft | 459 kts | 140° |
| 2026-05-08 09:53 | 49.63692 | 9.81227 | 37131 ft | 459 kts | 140° |
| 2026-05-08 09:54 | 49.59086 | 9.87856 | 37136 ft | 459 kts | 140° |
| 2026-05-08 09:54 | 49.54380 | 9.94605 | 37134 ft | 459 kts | 140° |
| 2026-05-08 09:55 | 49.49704 | 10.01296 | 37137 ft | 459 kts | 140° |
| 2026-05-08 09:55 | 49.45025 | 10.07969 | 37143 ft | 459 kts | 140° |
| 2026-05-08 09:56 | 49.40336 | 10.14632 | 37149 ft | 459 kts | 140° |
| 2026-05-08 09:56 | 49.35649 | 10.21290 | 37157 ft | 459 kts | 140° |
| 2026-05-08 09:57 | 49.28607 | 10.31255 | 37145 ft | 459 kts | 141° |
| 2026-05-08 09:57 | 49.23865 | 10.37790 | 37148 ft | 456 kts | 146° |
| 2026-05-08 09:58 | 49.18540 | 10.42931 | 37164 ft | 452 kts | 153° |
| 2026-05-08 09:58 | 49.13221 | 10.47769 | 37165 ft | 452 kts | 152° |
| 2026-05-08 09:59 | 49.07761 | 10.52742 | 37174 ft | 452 kts | 153° |
| 2026-05-08 09:59 | 49.02349 | 10.57645 | 37152 ft | 452 kts | 152° |
| 2026-05-08 10:00 | 48.96943 | 10.62529 | 37156 ft | 452 kts | 153° |
| 2026-05-08 10:00 | 48.91534 | 10.67404 | 37156 ft | 452 kts | 153° |
| 2026-05-08 10:01 | 48.86121 | 10.72273 | 37159 ft | 452 kts | 153° |
| 2026-05-08 10:01 | 48.80900 | 10.77491 | 37145 ft | 456 kts | 142° |
| 2026-05-08 10:02 | 48.76489 | 10.84542 | 37128 ft | 459 kts | 135° |
| 2026-05-08 10:02 | 48.72238 | 10.91691 | 37121 ft | 459 kts | 135° |
| 2026-05-08 10:03 | 48.67949 | 10.98863 | 37114 ft | 459 kts | 135° |
| 2026-05-08 10:03 | 48.63648 | 11.06025 | 37115 ft | 460 kts | 135° |
| 2026-05-08 10:04 | 48.59345 | 11.13184 | 37120 ft | 460 kts | 135° |
| 2026-05-08 10:04 | 48.55037 | 11.20333 | 37120 ft | 460 kts | 135° |
| 2026-05-08 10:05 | 48.50722 | 11.27468 | 37097 ft | 460 kts | 136° |
| 2026-05-08 10:05 | 48.46398 | 11.34603 | 37094 ft | 461 kts | 136° |
| 2026-05-08 10:06 | 48.42101 | 11.41686 | 37100 ft | 461 kts | 136° |
| 2026-05-08 10:06 | 48.37763 | 11.48811 | 37111 ft | 462 kts | 136° |
| 2026-05-08 10:07 | 48.33417 | 11.55920 | 37122 ft | 462 kts | 136° |
| 2026-05-08 10:07 | 48.29065 | 11.63019 | 37120 ft | 462 kts | 136° |
| 2026-05-08 10:08 | 48.24656 | 11.70023 | 37115 ft | 460 kts | 139° |
| 2026-05-08 10:08 | 48.19986 | 11.76548 | 37117 ft | 458 kts | 142° |
| 2026-05-08 10:09 | 48.15233 | 11.82812 | 37115 ft | 458 kts | 142° |
| 2026-05-08 10:09 | 48.10482 | 11.89173 | 37106 ft | 458 kts | 142° |
| 2026-05-08 10:10 | 48.05775 | 11.95620 | 37102 ft | 458 kts | 141° |
| 2026-05-08 10:10 | 48.01084 | 12.02065 | 37073 ft | 458 kts | 142° |
| 2026-05-08 10:11 | 47.96413 | 12.08441 | 37079 ft | 458 kts | 142° |
| 2026-05-08 10:11 | 47.91651 | 12.14891 | 37089 ft | 458 kts | 142° |
| 2026-05-08 10:12 | 47.86916 | 12.21269 | 37099 ft | 458 kts | 142° |
| 2026-05-08 10:12 | 47.82260 | 12.27546 | 37099 ft | 459 kts | 142° |
| 2026-05-08 10:13 | 47.77543 | 12.33903 | 37097 ft | 459 kts | 142° |
| 2026-05-08 10:13 | 47.72745 | 12.40334 | 37091 ft | 459 kts | 142° |
| 2026-05-08 10:14 | 47.67998 | 12.46690 | 37093 ft | 459 kts | 143° |
| 2026-05-08 10:14 | 47.63249 | 12.53027 | 37096 ft | 459 kts | 143° |